Time;durP1;ratioP1;P1;durP2;ratioP2;P2;SDS_P1;SDS_P2;PMS_P1;PMS_P2;Temp;Humidity;BMP_temperature;BMP_pressure;BME280_temperature;BME280_humidity;BME280_pressure;Samples;Min_cycle;Max_cycle;Signal;HPM_P1;HPM_P2
2023/07/21 00:00:27;;;;;;;;;;;21.80;65.50;;;;;;5002176;28;1328;-74
2023/07/21 00:02:53;;;;;;;;;;;21.80;65.50;;;;;;4999625;28;1902;-74
2023/07/21 00:05:18;;;;;;;;;;;21.80;65.50;;;;;;5002566;28;873;-74
2023/07/21 00:07:44;;;;;;;;;;;21.80;65.50;;;;;;4999179;28;793;-74
2023/07/21 00:10:10;;;;;;;;;;;21.80;65.50;;;;;;4997130;28;1258;-73
2023/07/21 00:12:36;;;;;;;;;;;21.80;65.50;;;;;;4998766;28;1094;-73
2023/07/21 00:15:02;;;;;;;;;;;21.80;65.50;;;;;;4999216;28;1276;-72
2023/07/21 00:17:30;;;;;;;;;;;21.80;65.60;;;;;;4974094;28;1292;-74
2023/07/21 00:19:58;;;;;;;;;;;21.80;65.50;;;;;;4994048;28;1399;-73
2023/07/21 00:22:25;;;;;;;;;;;21.80;65.50;;;;;;4998721;28;1954;-71
2023/07/21 00:24:50;;;;;;;;;;;21.80;65.50;;;;;;4998931;28;868;-73
2023/07/21 00:27:17;;;;;;;;;;;21.80;65.50;;;;;;5000145;28;1342;-73
2023/07/21 00:29:43;;;;;;;;;;;21.80;65.60;;;;;;4997255;28;1334;-72
2023/07/21 00:32:08;;;;;;;;;;;21.80;65.60;;;;;;4999428;28;840;-71
2023/07/21 00:34:35;;;;;;;;;;;21.80;65.60;;;;;;5002358;28;1390;-71
2023/07/21 00:37:00;;;;;;;;;;;21.80;65.60;;;;;;4999434;28;1066;-70
2023/07/21 00:39:26;;;;;;;;;;;21.80;65.60;;;;;;5001289;28;1395;-70
2023/07/21 00:41:52;;;;;;;;;;;21.80;65.60;;;;;;5000574;28;919;-74
2023/07/21 00:44:18;;;;;;;;;;;21.80;65.60;;;;;;5004790;28;1914;-74
2023/07/21 00:46:44;;;;;;;;;;;21.80;65.60;;;;;;4992130;28;1290;-74
2023/07/21 00:49:09;;;;;;;;;;;21.80;65.60;;;;;;4988964;28;846;-74
2023/07/21 00:51:35;;;;;;;;;;;21.80;65.60;;;;;;5003009;28;1261;-74
2023/07/21 00:54:01;;;;;;;;;;;21.80;65.60;;;;;;4981266;28;852;-74
2023/07/21 00:56:26;;;;;;;;;;;21.80;65.60;;;;;;5000218;28;867;-74
2023/07/21 00:58:51;;;;;;;;;;;21.80;65.60;;;;;;4989035;28;1157;-74
2023/07/21 01:01:22;;;;;;;;;;;21.80;65.70;;;;;;4983977;28;1268;-72
2023/07/21 01:03:48;;;;;;;;;;;21.80;65.60;;;;;;5000160;28;1931;-71
2023/07/21 01:06:13;;;;;;;;;;;21.80;65.60;;;;;;4998690;28;892;-72
2023/07/21 01:08:39;;;;;;;;;;;21.80;65.70;;;;;;4984975;28;1015;-71
2023/07/21 01:11:04;;;;;;;;;;;21.80;65.60;;;;;;5001074;28;1401;-71
2023/07/21 01:13:31;;;;;;;;;;;21.80;65.70;;;;;;4997759;28;860;-71
2023/07/21 01:15:57;;;;;;;;;;;21.80;65.60;;;;;;4999377;28;824;-72
2023/07/21 01:18:22;;;;;;;;;;;21.80;65.70;;;;;;4998282;28;1303;-72
2023/07/21 01:20:48;;;;;;;;;;;21.80;65.70;;;;;;4986285;28;1391;-72
2023/07/21 01:23:19;;;;;;;;;;;21.80;65.70;;;;;;4999301;28;1902;-72
2023/07/21 01:25:44;;;;;;;;;;;21.80;65.70;;;;;;4999677;28;979;-73
2023/07/21 01:28:11;;;;;;;;;;;21.80;65.70;;;;;;4995001;28;1451;-73
2023/07/21 01:30:36;;;;;;;;;;;21.80;65.70;;;;;;4997287;28;1261;-73
2023/07/21 01:33:02;;;;;;;;;;;21.80;65.70;;;;;;5000589;28;860;-73
2023/07/21 01:35:28;;;;;;;;;;;21.80;65.70;;;;;;4985906;28;1257;-73
2023/07/21 01:37:55;;;;;;;;;;;21.80;65.70;;;;;;4988359;28;914;-72
2023/07/21 01:40:20;;;;;;;;;;;21.80;65.70;;;;;;4998513;28;1316;-70
2023/07/21 01:42:46;;;;;;;;;;;21.80;65.80;;;;;;5002659;28;1967;-71
2023/07/21 01:45:11;;;;;;;;;;;21.80;65.80;;;;;;5002836;28;904;-71
2023/07/21 01:47:37;;;;;;;;;;;21.80;65.80;;;;;;4989493;28;1410;-71
2023/07/21 01:50:08;;;;;;;;;;;21.80;65.80;;;;;;5003816;28;1279;-70
2023/07/21 01:52:34;;;;;;;;;;;21.80;65.80;;;;;;5003290;28;852;-70
2023/07/21 01:55:20;;;;;;;;;;;21.80;65.80;;;;;;5000761;28;952;-70
2023/07/21 01:57:46;;;;;;;;;;;21.80;65.80;;;;;;5005894;28;1104;-71
2023/07/21 02:00:13;;;;;;;;;;;21.80;65.80;;;;;;5000124;28;1366;-71
2023/07/21 02:02:40;;;;;;;;;;;21.80;65.80;;;;;;5003490;28;1918;-72
2023/07/21 02:05:06;;;;;;;;;;;21.80;65.80;;;;;;4998504;28;895;-73
2023/07/21 02:07:32;;;;;;;;;;;21.80;65.80;;;;;;5001364;28;980;-73
2023/07/21 02:09:57;;;;;;;;;;;21.70;65.70;;;;;;5003278;28;1373;-73
2023/07/21 02:12:23;;;;;;;;;;;21.80;65.80;;;;;;4993909;28;970;-73
2023/07/21 02:14:48;;;;;;;;;;;21.70;65.70;;;;;;5007941;28;812;-73
2023/07/21 02:17:14;;;;;;;;;;;21.70;65.70;;;;;;4988385;28;842;-73
2023/07/21 02:19:39;;;;;;;;;;;21.80;65.80;;;;;;4986889;28;1266;-73
2023/07/21 02:22:05;;;;;;;;;;;21.70;65.70;;;;;;4995876;28;1249;-73
2023/07/21 02:24:30;;;;;;;;;;;21.80;65.80;;;;;;5004772;28;1899;-73
2023/07/21 02:26:56;;;;;;;;;;;21.70;65.80;;;;;;5007105;28;840;-73
2023/07/21 02:29:21;;;;;;;;;;;21.70;65.70;;;;;;5003102;28;1560;-73
2023/07/21 02:31:48;;;;;;;;;;;21.80;65.80;;;;;;5002977;28;825;-73
2023/07/21 02:34:14;;;;;;;;;;;21.70;65.80;;;;;;5004386;28;1362;-73
2023/07/21 02:36:39;;;;;;;;;;;21.70;65.80;;;;;;4991911;28;1393;-72
2023/07/21 02:39:05;;;;;;;;;;;21.80;65.90;;;;;;4989007;28;889;-74
2023/07/21 02:41:31;;;;;;;;;;;21.70;65.80;;;;;;5006737;28;1208;-74
2023/07/21 02:43:56;;;;;;;;;;;21.70;65.80;;;;;;5004656;28;1961;-72
2023/07/21 02:46:22;;;;;;;;;;;21.80;65.90;;;;;;4999715;28;916;-72
2023/07/21 02:48:47;;;;;;;;;;;21.70;65.80;;;;;;4998829;28;1058;-72
2023/07/21 02:51:12;;;;;;;;;;;21.80;65.90;;;;;;5001659;28;1271;-72
2023/07/21 02:53:39;;;;;;;;;;;21.70;65.80;;;;;;5003109;28;832;-73
2023/07/21 02:56:04;;;;;;;;;;;21.70;65.80;;;;;;5001841;28;800;-72
2023/07/21 02:58:30;;;;;;;;;;;21.80;65.90;;;;;;4988683;28;800;-73
2023/07/21 03:00:55;;;;;;;;;;;21.80;65.90;;;;;;4999985;28;1255;-72
2023/07/21 03:03:23;;;;;;;;;;;21.70;65.90;;;;;;5000215;28;1878;-72
2023/07/21 03:05:48;;;;;;;;;;;21.70;65.80;;;;;;5002028;28;908;-73
2023/07/21 03:08:14;;;;;;;;;;;21.70;65.90;;;;;;4999687;28;789;-72
2023/07/21 03:10:40;;;;;;;;;;;21.70;65.90;;;;;;4989688;28;1323;-72
2023/07/21 03:13:05;;;;;;;;;;;21.70;66.00;;;;;;4981870;28;1469;-72
2023/07/21 03:15:31;;;;;;;;;;;21.70;65.90;;;;;;4998719;28;940;-72
2023/07/21 03:17:56;;;;;;;;;;;21.70;65.90;;;;;;4998535;28;899;-72
2023/07/21 03:20:22;;;;;;;;;;;21.70;65.90;;;;;;5001848;28;1388;-72
2023/07/21 03:22:47;;;;;;;;;;;21.70;65.90;;;;;;4999343;28;1961;-72
2023/07/21 03:25:13;;;;;;;;;;;21.70;66.00;;;;;;5001960;28;864;-73
2023/07/21 03:27:39;;;;;;;;;;;21.70;65.90;;;;;;5000070;28;863;-72
2023/07/21 03:30:05;;;;;;;;;;;21.70;66.00;;;;;;4985428;28;1281;-75
2023/07/21 03:32:31;;;;;;;;;;;21.70;65.90;;;;;;5000360;28;1148;-75
2023/07/21 03:34:57;;;;;;;;;;;21.70;66.00;;;;;;5001373;28;1283;-74
2023/07/21 03:37:23;;;;;;;;;;;21.70;66.00;;;;;;5006317;28;899;-74
2023/07/21 03:39:48;;;;;;;;;;;21.70;66.00;;;;;;4999068;28;1411;-74
2023/07/21 03:42:14;;;;;;;;;;;21.80;66.00;;;;;;5000696;28;816;-74
2023/07/21 03:44:39;;;;;;;;;;;21.70;66.00;;;;;;5002675;28;1914;-74
2023/07/21 03:47:05;;;;;;;;;;;21.70;66.00;;;;;;5002908;28;868;-74
2023/07/21 03:49:31;;;;;;;;;;;21.70;66.00;;;;;;5002634;28;1281;-74
2023/07/21 03:51:57;;;;;;;;;;;21.70;66.00;;;;;;4996912;28;809;-74
2023/07/21 03:54:22;;;;;;;;;;;21.70;66.00;;;;;;5005378;28;821;-74
2023/07/21 03:56:48;;;;;;;;;;;21.70;66.00;;;;;;5004250;28;899;-74
2023/07/21 03:59:13;;;;;;;;;;;21.70;66.00;;;;;;5004562;28;1279;-74
2023/07/21 04:01:39;;;;;;;;;;;21.70;66.00;;;;;;4996864;28;987;-74
2023/07/21 04:04:05;;;;;;;;;;;21.70;66.00;;;;;;5002549;28;1963;-75
2023/07/21 04:06:30;;;;;;;;;;;21.70;66.00;;;;;;4996967;28;857;-74
2023/07/21 04:08:56;;;;;;;;;;;21.70;66.00;;;;;;5000133;28;816;-74
2023/07/21 04:11:21;;;;;;;;;;;21.70;66.00;;;;;;5001586;28;1225;-74
2023/07/21 04:13:47;;;;;;;;;;;21.70;66.00;;;;;;5004690;28;805;-74
2023/07/21 04:16:12;;;;;;;;;;;21.70;66.10;;;;;;5001242;28;840;-74
2023/07/21 04:18:39;;;;;;;;;;;21.70;66.00;;;;;;4999323;28;789;-74
2023/07/21 04:21:05;;;;;;;;;;;21.70;66.00;;;;;;5007819;28;1343;-74
2023/07/21 04:23:30;;;;;;;;;;;21.70;66.10;;;;;;4991631;28;1965;-73
2023/07/21 04:25:55;;;;;;;;;;;21.70;66.10;;;;;;4995134;28;872;-75
2023/07/21 04:28:21;;;;;;;;;;;21.70;66.00;;;;;;5002602;28;1010;-75
2023/07/21 04:30:47;;;;;;;;;;;21.70;66.10;;;;;;5001986;28;1296;-73
2023/07/21 04:33:13;;;;;;;;;;;21.70;66.10;;;;;;4999836;28;835;-73
2023/07/21 04:35:48;;;;;;;;;;;21.70;66.10;;;;;;5000144;28;1261;-73
2023/07/21 04:38:14;;;;;;;;;;;21.70;66.10;;;;;;4997240;28;824;-72
2023/07/21 04:40:44;;;;;;;;;;;21.70;66.10;;;;;;5002885;28;1276;-74
2023/07/21 04:43:10;;;;;;;;;;;21.70;66.10;;;;;;5001814;28;1910;-74
2023/07/21 04:45:37;;;;;;;;;;;21.70;66.10;;;;;;4997885;28;1336;-74
2023/07/21 04:48:02;;;;;;;;;;;21.70;66.10;;;;;;5007229;28;1508;-72
2023/07/21 04:50:28;;;;;;;;;;;21.70;66.10;;;;;;5012846;28;1673;-72
2023/07/21 04:52:53;;;;;;;;;;;21.70;66.10;;;;;;5000507;28;1518;-71
2023/07/21 04:55:19;;;;;;;;;;;21.70;66.10;;;;;;4998598;28;880;-72
2023/07/21 04:57:44;;;;;;;;;;;21.70;66.10;;;;;;5000367;28;863;-72
2023/07/21 05:00:15;;;;;;;;;;;21.70;66.10;;;;;;5001098;28;1334;-73
2023/07/21 05:02:40;;;;;;;;;;;21.70;66.10;;;;;;5003054;28;1961;-72
2023/07/21 05:05:06;;;;;;;;;;;21.70;66.10;;;;;;4999598;28;1014;-73
2023/07/21 05:07:32;;;;;;;;;;;21.70;66.10;;;;;;4998900;28;832;-72
2023/07/21 05:09:57;;;;;;;;;;;21.70;66.20;;;;;;4999956;28;1358;-72
2023/07/21 05:12:24;;;;;;;;;;;21.70;66.10;;;;;;4998203;28;824;-72
2023/07/21 05:14:49;;;;;;;;;;;21.70;66.10;;;;;;5000992;28;835;-72
2023/07/21 05:17:16;;;;;;;;;;;21.70;66.20;;;;;;4997706;28;944;-72
2023/07/21 05:19:42;;;;;;;;;;;21.70;66.10;;;;;;4999800;28;1350;-72
2023/07/21 05:22:07;;;;;;;;;;;21.70;66.20;;;;;;5000706;28;875;-72
2023/07/21 05:24:33;;;;;;;;;;;21.70;66.20;;;;;;4996618;28;1960;-72
2023/07/21 05:26:59;;;;;;;;;;;21.70;66.20;;;;;;4998129;28;1378;-72
2023/07/21 05:29:24;;;;;;;;;;;21.70;66.20;;;;;;4984759;28;1209;-72
2023/07/21 05:31:52;;;;;;;;;;;21.70;66.20;;;;;;4997287;28;860;-72
2023/07/21 05:34:17;;;;;;;;;;;21.70;66.20;;;;;;5001311;28;942;-72
2023/07/21 05:36:43;;;;;;;;;;;21.70;66.20;;;;;;4996856;28;785;-72
2023/07/21 05:39:08;;;;;;;;;;;21.70;66.20;;;;;;4998832;28;901;-72
2023/07/21 05:41:34;;;;;;;;;;;21.70;66.20;;;;;;4999894;28;1256;-72
2023/07/21 05:43:59;;;;;;;;;;;21.70;66.20;;;;;;4999632;28;1965;-73
2023/07/21 05:46:25;;;;;;;;;;;21.70;66.20;;;;;;4999409;28;845;-73
2023/07/21 05:48:50;;;;;;;;;;;21.70;66.20;;;;;;5000965;28;840;-73
2023/07/21 05:51:17;;;;;;;;;;;21.70;66.20;;;;;;4961710;28;1343;-72
2023/07/21 05:53:43;;;;;;;;;;;21.70;66.20;;;;;;4997522;28;864;-72
2023/07/21 05:56:08;;;;;;;;;;;21.70;66.20;;;;;;4997359;28;820;-73
2023/07/21 05:58:35;;;;;;;;;;;21.70;66.20;;;;;;4999317;28;935;-73
2023/07/21 06:01:00;;;;;;;;;;;21.70;66.20;;;;;;4986727;28;1348;-73
2023/07/21 06:03:26;;;;;;;;;;;21.70;66.30;;;;;;4997725;28;1894;-73
2023/07/21 06:05:52;;;;;;;;;;;21.70;66.20;;;;;;4997567;28;870;-74
2023/07/21 06:08:18;;;;;;;;;;;21.70;66.20;;;;;;4998404;28;814;-74
2023/07/21 06:10:44;;;;;;;;;;;21.70;66.20;;;;;;4996860;28;1261;-74
2023/07/21 06:13:12;;;;;;;;;;;21.70;66.20;;;;;;4996221;28;1065;-73
2023/07/21 06:15:37;;;;;;;;;;;21.70;66.20;;;;;;4999290;28;903;-74
2023/07/21 06:18:03;;;;;;;;;;;21.70;66.20;;;;;;4996120;28;818;-71
2023/07/21 06:20:29;;;;;;;;;;;21.70;66.20;;;;;;4999534;28;1274;-70
2023/07/21 06:22:54;;;;;;;;;;;21.70;66.30;;;;;;4984962;28;1886;-69
2023/07/21 06:25:20;;;;;;;;;;;21.70;66.20;;;;;;4997683;28;846;-68
2023/07/21 06:27:47;;;;;;;;;;;21.70;66.20;;;;;;4994150;28;1378;-68
2023/07/21 06:30:13;;;;;;;;;;;21.70;66.20;;;;;;5001456;28;1330;-69
2023/07/21 06:32:40;;;;;;;;;;;21.70;66.20;;;;;;5000025;28;900;-69
2023/07/21 06:35:06;;;;;;;;;;;21.70;66.30;;;;;;4998713;28;804;-71
2023/07/21 06:37:33;;;;;;;;;;;21.70;66.20;;;;;;5001746;28;852;-71
2023/07/21 06:39:59;;;;;;;;;;;21.70;66.20;;;;;;5002238;28;1350;-72
2023/07/21 06:42:24;;;;;;;;;;;21.70;66.20;;;;;;5003409;28;1973;-72
2023/07/21 06:44:50;;;;;;;;;;;21.70;66.20;;;;;;5002303;28;853;-72
2023/07/21 06:47:16;;;;;;;;;;;21.70;66.20;;;;;;5003671;28;867;-72
2023/07/21 06:49:42;;;;;;;;;;;21.70;67.00;;;;;;5003823;28;1398;-72
2023/07/21 06:52:08;;;;;;;;;;;21.70;66.30;;;;;;5000954;28;804;-72
2023/07/21 06:54:35;;;;;;;;;;;21.70;66.20;;;;;;5003420;28;851;-72
2023/07/21 06:57:00;;;;;;;;;;;21.70;67.00;;;;;;4999249;28;887;-72
2023/07/21 06:59:26;;;;;;;;;;;21.70;66.20;;;;;;5000218;28;1385;-72
2023/07/21 07:01:51;;;;;;;;;;;21.70;66.30;;;;;;5001802;28;880;-71
2023/07/21 07:04:17;;;;;;;;;;;21.70;66.20;;;;;;5006114;28;1969;-72
2023/07/21 07:06:42;;;;;;;;;;;21.70;66.20;;;;;;5001777;28;997;-72
2023/07/21 07:09:08;;;;;;;;;;;21.70;66.30;;;;;;5002337;28;829;-72
2023/07/21 07:11:34;;;;;;;;;;;21.70;66.30;;;;;;5004844;28;1170;-73
2023/07/21 07:13:59;;;;;;;;;;;21.70;66.30;;;;;;4986570;28;867;-72
2023/07/21 07:16:25;;;;;;;;;;;21.70;66.30;;;;;;4999852;28;857;-73
2023/07/21 07:18:50;;;;;;;;;;;21.70;66.30;;;;;;5003523;28;1168;-72
2023/07/21 07:21:16;;;;;;;;;;;21.70;66.30;;;;;;5000262;28;1283;-72
2023/07/21 07:23:41;;;;;;;;;;;21.70;66.30;;;;;;5000498;28;1910;-72
2023/07/21 07:26:07;;;;;;;;;;;21.70;66.30;;;;;;4984380;28;1028;-72
2023/07/21 07:28:32;;;;;;;;;;;21.70;66.30;;;;;;4998835;28;1261;-73
2023/07/21 07:31:02;;;;;;;;;;;21.70;66.30;;;;;;5004241;28;1332;-72
2023/07/21 07:33:28;;;;;;;;;;;21.70;66.30;;;;;;4994755;28;990;-73
2023/07/21 07:35:53;;;;;;;;;;;21.70;66.30;;;;;;5003574;28;1365;-73
2023/07/21 07:38:19;;;;;;;;;;;21.70;66.30;;;;;;5000143;28;975;-72
2023/07/21 07:40:48;;;;;;;;;;;21.70;66.30;;;;;;4985136;28;1381;-73
2023/07/21 07:43:13;;;;;;;;;;;21.70;66.30;;;;;;4996854;28;1984;-72
2023/07/21 07:45:39;;;;;;;;;;;21.70;66.30;;;;;;5005122;28;1543;-73
2023/07/21 07:48:04;;;;;;;;;;;21.70;66.30;;;;;;5000769;28;978;-73
2023/07/21 07:50:30;;;;;;;;;;;21.70;66.30;;;;;;4989358;28;1445;-73
2023/07/21 07:52:58;;;;;;;;;;;21.70;66.30;;;;;;4997352;28;800;-73
2023/07/21 07:55:25;;;;;;;;;;;21.70;66.30;;;;;;4986321;28;1294;-71
2023/07/21 07:57:51;;;;;;;;;;;21.70;66.30;;;;;;4996448;28;1189;-73
2023/07/21 08:00:19;;;;;;;;;;;21.70;66.30;;;;;;4990297;28;1381;-71
2023/07/21 08:02:45;;;;;;;;;;;21.70;66.30;;;;;;4999355;28;1899;-72
2023/07/21 08:05:10;;;;;;;;;;;21.70;66.40;;;;;;4976107;28;1568;-73
2023/07/21 08:07:36;;;;;;;;;;;21.70;66.30;;;;;;5004690;28;1529;-73
2023/07/21 08:10:03;;;;;;;;;;;21.70;66.30;;;;;;4973696;28;1275;-72
2023/07/21 08:12:28;;;;;;;;;;;21.70;66.30;;;;;;4997853;28;895;-74
2023/07/21 08:14:57;;;;;;;;;;;21.70;66.30;;;;;;4985646;28;1337;-74
2023/07/21 08:17:23;;;;;;;;;;;21.70;66.30;;;;;;4984010;28;895;-73
2023/07/21 08:19:48;;;;;;;;;;;21.70;66.30;;;;;;5001703;28;1344;-71
2023/07/21 08:22:15;;;;;;;;;;;21.70;66.30;;;;;;5005339;28;829;-72
2023/07/21 08:24:40;;;;;;;;;;;21.70;66.30;;;;;;5002893;28;1890;-73
2023/07/21 08:27:07;;;;;;;;;;;21.70;66.30;;;;;;5000823;28;1366;-72
2023/07/21 08:29:33;;;;;;;;;;;21.70;66.30;;;;;;5001033;28;1383;-72
2023/07/21 08:31:59;;;;;;;;;;;21.70;66.30;;;;;;4999134;28;895;-73
2023/07/21 08:34:25;;;;;;;;;;;21.70;66.30;;;;;;5000528;28;1308;-73
2023/07/21 08:36:50;;;;;;;;;;;21.70;66.30;;;;;;5000477;28;855;-72
2023/07/21 08:39:16;;;;;;;;;;;21.70;66.30;;;;;;5004355;28;1310;-72
2023/07/21 08:41:44;;;;;;;;;;;21.70;66.30;;;;;;5001304;28;1031;-73
2023/07/21 08:44:10;;;;;;;;;;;21.70;66.30;;;;;;4982938;28;1902;-72
2023/07/21 08:46:35;;;;;;;;;;;21.70;66.30;;;;;;4988149;28;854;-72
2023/07/21 08:49:01;;;;;;;;;;;21.70;66.40;;;;;;4999708;28;809;-72
2023/07/21 08:51:26;;;;;;;;;;;21.70;66.30;;;;;;4988118;28;1312;-72
2023/07/21 08:53:52;;;;;;;;;;;21.70;66.30;;;;;;5001208;28;864;-72
2023/07/21 08:56:17;;;;;;;;;;;21.60;66.30;;;;;;5000396;28;1704;-72
2023/07/21 08:58:45;;;;;;;;;;;21.70;66.30;;;;;;4987448;28;1358;-72
2023/07/21 09:01:10;;;;;;;;;;;21.70;66.30;;;;;;5004868;28;1381;-73
2023/07/21 09:03:37;;;;;;;;;;;21.70;66.30;;;;;;4975834;28;1966;-73
2023/07/21 09:06:02;;;;;;;;;;;21.70;66.30;;;;;;4986762;28;1445;-73
2023/07/21 09:08:28;;;;;;;;;;;21.70;66.30;;;;;;4997794;28;748;-73
2023/07/21 09:10:58;;;;;;;;;;;21.60;66.30;;;;;;5003207;28;1259;-74
2023/07/21 09:13:23;;;;;;;;;;;21.70;66.40;;;;;;4999044;28;902;-75
2023/07/21 09:15:50;;;;;;;;;;;21.70;66.40;;;;;;4996032;28;947;-73
2023/07/21 09:18:15;;;;;;;;;;;21.70;66.40;;;;;;4998167;28;1352;-74
2023/07/21 09:20:40;;;;;;;;;;;21.70;66.30;;;;;;4989025;28;2172;-74
2023/07/21 09:23:07;;;;;;;;;;;21.70;66.40;;;;;;5002493;28;1902;-74
2023/07/21 09:25:33;;;;;;;;;;;21.70;66.40;;;;;;4998959;28;1253;-71
2023/07/21 09:27:58;;;;;;;;;;;21.70;66.40;;;;;;4998260;28;954;-72
2023/07/21 09:30:23;;;;;;;;;;;21.60;66.30;;;;;;5000580;28;1254;-71
2023/07/21 09:32:51;;;;;;;;;;;21.70;66.40;;;;;;4993542;28;846;-72
2023/07/21 09:35:17;;;;;;;;;;;21.70;66.50;;;;;;4998561;28;1452;-76
2023/07/21 09:37:42;;;;;;;;;;;21.70;66.40;;;;;;4999119;28;948;-75
2023/07/21 09:40:11;;;;;;;;;;;21.70;66.40;;;;;;5000938;28;1342;-74
2023/07/21 09:42:37;;;;;;;;;;;21.60;66.30;;;;;;4999188;28;1907;-74
2023/07/21 09:45:02;;;;;;;;;;;21.60;66.30;;;;;;4998462;28;808;-74
2023/07/21 09:47:28;;;;;;;;;;;21.60;66.30;;;;;;5003896;28;850;-74
2023/07/21 09:49:54;;;;;;;;;;;21.60;66.30;;;;;;4997110;28;1521;-74
2023/07/21 09:52:20;;;;;;;;;;;21.70;66.40;;;;;;4986368;28;840;-73
2023/07/21 09:55:04;;;;;;;;;;;21.70;66.40;;;;;;4999464;28;1006;-73
2023/07/21 09:57:29;;;;;;;;;;;21.60;66.30;;;;;;4998589;28;852;-74
2023/07/21 09:59:55;;;;;;;;;;;21.60;66.30;;;;;;4996965;28;1359;-73
2023/07/21 10:02:21;;;;;;;;;;;21.60;66.30;;;;;;4985776;28;888;-73
2023/07/21 10:04:47;;;;;;;;;;;21.70;66.40;;;;;;5002780;28;1947;-73
2023/07/21 10:07:12;;;;;;;;;;;21.60;66.40;;;;;;5005315;28;864;-74
2023/07/21 10:09:37;;;;;;;;;;;21.60;66.40;;;;;;5002628;28;1275;-73
2023/07/21 10:12:10;;;;;;;;;;;21.70;66.40;;;;;;4986588;28;916;-74
2023/07/21 10:14:36;;;;;;;;;;;21.60;66.40;;;;;;5003586;28;898;-73
2023/07/21 10:17:02;;;;;;;;;;;21.70;66.40;;;;;;5000662;28;1430;-74
2023/07/21 10:19:28;;;;;;;;;;;21.60;66.40;;;;;;5000177;28;1264;-74
2023/07/21 10:21:54;;;;;;;;;;;21.60;66.30;;;;;;5005293;28;1027;-74
2023/07/21 10:24:24;;;;;;;;;;;21.60;66.40;;;;;;5006625;28;1902;-74
2023/07/21 10:26:56;;;;;;;;;;;21.60;66.40;;;;;;4987834;28;954;-74
2023/07/21 10:29:21;;;;;;;;;;;21.60;66.40;;;;;;4988387;28;1356;-74
2023/07/21 10:31:53;;;;;;;;;;;21.60;66.40;;;;;;5003840;28;1046;-76
2023/07/21 10:34:19;;;;;;;;;;;21.60;66.40;;;;;;5000797;28;1283;-72
2023/07/21 10:36:51;;;;;;;;;;;21.70;66.40;;;;;;4977240;28;1178;-72
2023/07/21 10:39:20;;;;;;;;;;;21.60;66.40;;;;;;5003179;28;1258;-72
2023/07/21 10:41:55;;;;;;;;;;;21.60;66.40;;;;;;5000523;28;898;-73
2023/07/21 10:44:21;;;;;;;;;;;21.70;66.40;;;;;;5000503;28;1906;-73
2023/07/21 10:46:47;;;;;;;;;;;21.70;66.50;;;;;;4998439;28;805;-73
2023/07/21 10:49:13;;;;;;;;;;;21.60;66.40;;;;;;5002752;28;959;-73
2023/07/21 10:51:41;;;;;;;;;;;21.60;66.40;;;;;;5001902;28;1275;-73
2023/07/21 10:54:07;;;;;;;;;;;21.70;66.50;;;;;;5001301;28;852;-73
2023/07/21 10:56:40;;;;;;;;;;;21.60;66.40;;;;;;5004693;28;826;-73
2023/07/21 10:59:06;;;;;;;;;;;21.60;66.40;;;;;;5001326;28;816;-75
2023/07/21 11:01:31;;;;;;;;;;;21.60;66.40;;;;;;4998928;28;1231;-74
2023/07/21 11:04:00;;;;;;;;;;;21.60;66.40;;;;;;5003055;28;1973;-74
2023/07/21 11:06:25;;;;;;;;;;;21.70;66.50;;;;;;4992928;28;916;-74
2023/07/21 11:08:51;;;;;;;;;;;21.60;66.40;;;;;;5002536;28;840;-74
2023/07/21 11:11:16;;;;;;;;;;;21.60;66.40;;;;;;5004821;28;1358;-73
2023/07/21 11:13:42;;;;;;;;;;;21.60;66.40;;;;;;4982724;28;801;-73
2023/07/21 11:16:08;;;;;;;;;;;21.60;66.40;;;;;;5004003;28;896;-71
2023/07/21 11:18:34;;;;;;;;;;;21.60;66.40;;;;;;5004348;28;1400;-74
2023/07/21 11:21:00;;;;;;;;;;;21.60;66.40;;;;;;5004963;28;1379;-75
2023/07/21 11:23:28;;;;;;;;;;;21.70;66.50;;;;;;5003403;28;1956;-73
2023/07/21 11:26:10;;;;;;;;;;;21.60;66.40;;;;;;4985084;28;1406;-74
2023/07/21 11:28:40;;;;;;;;;;;21.60;66.40;;;;;;4988635;28;1411;-74
2023/07/21 11:31:12;;;;;;;;;;;21.60;66.40;;;;;;4999893;28;1249;-75
2023/07/21 11:33:42;;;;;;;;;;;21.60;67.20;;;;;;5000200;28;1267;-75
2023/07/21 11:36:14;;;;;;;;;;;21.70;66.50;;;;;;5002114;28;781;-75
2023/07/21 11:38:40;;;;;;;;;;;21.60;66.50;;;;;;4999677;28;848;-75
2023/07/21 11:41:07;;;;;;;;;;;21.70;66.50;;;;;;5002108;28;1337;-74
2023/07/21 11:43:48;;;;;;;;;;;21.60;66.50;;;;;;5002150;28;1960;-75
2023/07/21 11:46:25;;;;;;;;;;;21.70;66.50;;;;;;4998923;28;1631;-73
2023/07/21 11:48:51;;;;;;;;;;;21.60;66.50;;;;;;4988535;28;1283;-73
2023/07/21 11:51:17;;;;;;;;;;;21.60;66.50;;;;;;4999170;28;1358;-73
2023/07/21 11:53:45;;;;;;;;;;;21.60;66.50;;;;;;5002494;28;955;-76
2023/07/21 11:56:11;;;;;;;;;;;21.60;66.50;;;;;;4993784;28;799;-74
2023/07/21 11:58:37;;;;;;;;;;;21.70;66.50;;;;;;5001932;28;1002;-75
2023/07/21 12:01:06;;;;;;;;;;;21.60;66.50;;;;;;4987780;28;1231;-73
2023/07/21 12:03:36;;;;;;;;;;;21.60;66.50;;;;;;5001136;28;1903;-73
2023/07/21 12:06:02;;;;;;;;;;;21.60;66.50;;;;;;5001066;28;924;-71
2023/07/21 12:08:29;;;;;;;;;;;21.60;66.50;;;;;;5001827;28;990;-71
2023/07/21 12:10:55;;;;;;;;;;;21.60;66.50;;;;;;4999926;28;1283;-75
2023/07/21 12:13:20;;;;;;;;;;;21.60;66.50;;;;;;5001541;28;809;-74
2023/07/21 12:15:46;;;;;;;;;;;21.60;66.50;;;;;;4998752;28;863;-72
2023/07/21 12:18:12;;;;;;;;;;;21.70;66.50;;;;;;5001360;28;1387;-71
2023/07/21 12:20:37;;;;;;;;;;;21.70;66.60;;;;;;5000478;28;1276;-75
2023/07/21 12:23:03;;;;;;;;;;;21.60;66.50;;;;;;5002459;28;1903;-74
2023/07/21 12:25:28;;;;;;;;;;;21.70;66.50;;;;;;4999272;28;760;-73
2023/07/21 12:27:53;;;;;;;;;;;21.60;66.50;;;;;;4999396;28;1222;-73
2023/07/21 12:30:20;;;;;;;;;;;21.70;66.50;;;;;;4995709;28;1675;-71
2023/07/21 12:32:45;;;;;;;;;;;21.60;66.50;;;;;;4997878;28;883;-72
2023/07/21 12:35:11;;;;;;;;;;;21.60;66.50;;;;;;5002175;28;1254;-72
2023/07/21 12:37:39;;;;;;;;;;;21.60;66.50;;;;;;5000896;28;855;-69
2023/07/21 12:40:12;;;;;;;;;;;21.70;66.60;;;;;;4996679;28;1394;-69
2023/07/21 12:42:40;;;;;;;;;;;21.70;66.60;;;;;;4997813;28;1898;-71
2023/07/21 12:45:06;;;;;;;;;;;21.70;66.60;;;;;;4996241;28;870;-71
2023/07/21 12:47:31;;;;;;;;;;;21.60;66.50;;;;;;4998239;28;1125;-71
2023/07/21 12:49:57;;;;;;;;;;;21.60;66.50;;;;;;4999834;28;1370;-69
2023/07/21 12:52:23;;;;;;;;;;;21.60;66.50;;;;;;4999457;28;1050;-69
2023/07/21 12:54:48;;;;;;;;;;;21.60;66.50;;;;;;4999300;28;832;-72
2023/07/21 12:57:13;;;;;;;;;;;21.70;66.60;;;;;;4996674;28;817;-71
2023/07/21 12:59:39;;;;;;;;;;;21.60;66.50;;;;;;4997812;28;1259;-72
2023/07/21 13:02:05;;;;;;;;;;;21.70;66.60;;;;;;4985198;28;1051;-73
2023/07/21 13:04:30;;;;;;;;;;;21.70;66.60;;;;;;5000268;28;1938;-71
2023/07/21 13:06:56;;;;;;;;;;;21.60;66.50;;;;;;5000044;28;904;-69
2023/07/21 13:09:23;;;;;;;;;;;21.60;66.60;;;;;;4998671;28;1276;-70
2023/07/21 13:11:49;;;;;;;;;;;21.60;66.60;;;;;;4999597;28;865;-71
2023/07/21 13:14:14;;;;;;;;;;;21.70;66.60;;;;;;5000827;28;840;-71
2023/07/21 13:16:40;;;;;;;;;;;21.70;66.70;;;;;;4998995;28;1271;-71
2023/07/21 13:19:06;;;;;;;;;;;21.60;66.60;;;;;;4997763;28;1313;-71
2023/07/21 13:21:31;;;;;;;;;;;21.70;66.60;;;;;;4999257;28;1272;-72
2023/07/21 13:23:56;;;;;;;;;;;21.60;66.60;;;;;;4999336;28;1906;-71
2023/07/21 13:26:22;;;;;;;;;;;21.60;66.60;;;;;;5000823;28;1659;-71
2023/07/21 13:28:48;;;;;;;;;;;21.60;66.60;;;;;;5000213;28;1284;-72
2023/07/21 13:31:13;;;;;;;;;;;21.60;66.60;;;;;;4999170;28;1280;-72
2023/07/21 13:33:39;;;;;;;;;;;21.60;66.60;;;;;;4998262;28;1241;-71
2023/07/21 13:36:05;;;;;;;;;;;21.70;66.70;;;;;;4996763;28;900;-72
2023/07/21 13:38:30;;;;;;;;;;;21.60;66.60;;;;;;5002413;28;945;-73
2023/07/21 13:40:58;;;;;;;;;;;21.70;66.60;;;;;;5004151;28;1284;-71
2023/07/21 13:43:24;;;;;;;;;;;21.60;66.60;;;;;;5005060;28;1910;-73
2023/07/21 13:45:49;;;;;;;;;;;21.60;66.60;;;;;;5005902;28;859;-69
2023/07/21 13:48:15;;;;;;;;;;;21.60;66.60;;;;;;5000384;28;983;-70
2023/07/21 13:50:40;;;;;;;;;;;21.70;66.70;;;;;;5003726;28;1326;-71
2023/07/21 13:53:06;;;;;;;;;;;21.60;66.60;;;;;;5003114;28;892;-72
2023/07/21 13:55:31;;;;;;;;;;;21.60;66.60;;;;;;5008336;28;858;-71
2023/07/21 13:57:57;;;;;;;;;;;21.60;66.60;;;;;;5003049;28;815;-71
2023/07/21 14:00:22;;;;;;;;;;;21.60;67.40;;;;;;5000416;28;1356;-71
2023/07/21 14:02:48;;;;;;;;;;;21.60;66.60;;;;;;4999538;28;1914;-71
2023/07/21 14:05:14;;;;;;;;;;;21.60;66.60;;;;;;5000680;28;1233;-72
2023/07/21 14:07:39;;;;;;;;;;;21.60;66.60;;;;;;5000261;28;817;-71
2023/07/21 14:10:05;;;;;;;;;;;21.60;66.60;;;;;;4999844;28;1354;-71
2023/07/21 14:12:30;;;;;;;;;;;21.60;66.60;;;;;;5002572;28;893;-72
2023/07/21 14:14:56;;;;;;;;;;;21.60;66.70;;;;;;5003327;28;892;-72
2023/07/21 14:17:23;;;;;;;;;;;21.70;66.70;;;;;;5001390;28;843;-71
2023/07/21 14:19:48;;;;;;;;;;;21.60;66.60;;;;;;5001606;28;1356;-71
2023/07/21 14:22:14;;;;;;;;;;;21.60;66.60;;;;;;5002111;28;884;-72
2023/07/21 14:24:39;;;;;;;;;;;21.60;66.60;;;;;;5001269;28;2001;-72
2023/07/21 14:27:05;;;;;;;;;;;21.60;66.60;;;;;;5000680;28;880;-71
2023/07/21 14:29:30;;;;;;;;;;;21.60;66.70;;;;;;4998255;28;1272;-71